sensor_id;sensor_type;location;lat;lon;timestamp;temperature;humidity
51950;DHT22;37974;53.218;6.640;2023-03-13T00:00:53;8.30;99.90
51950;DHT22;37974;53.218;6.640;2023-03-13T00:03:19;8.30;99.90
51950;DHT22;37974;53.218;6.640;2023-03-13T00:05:45;8.30;99.90
51950;DHT22;37974;53.218;6.640;2023-03-13T00:08:11;8.30;99.90
51950;DHT22;37974;53.218;6.640;2023-03-13T00:10:38;8.30;99.90
51950;DHT22;37974;53.218;6.640;2023-03-13T00:13:04;8.30;99.90
51950;DHT22;37974;53.218;6.640;2023-03-13T00:15:30;8.30;99.90
51950;DHT22;37974;53.218;6.640;2023-03-13T00:17:56;8.30;99.90
51950;DHT22;37974;53.218;6.640;2023-03-13T00:20:21;8.30;99.90
51950;DHT22;37974;53.218;6.640;2023-03-13T00:22:47;8.30;99.90
51950;DHT22;37974;53.218;6.640;2023-03-13T00:25:13;8.20;99.90
51950;DHT22;37974;53.218;6.640;2023-03-13T00:27:39;8.20;99.90
51950;DHT22;37974;53.218;6.640;2023-03-13T00:30:04;8.20;99.90
51950;DHT22;37974;53.218;6.640;2023-03-13T00:32:30;8.20;99.90
51950;DHT22;37974;53.218;6.640;2023-03-13T00:34:56;8.20;99.90
51950;DHT22;37974;53.218;6.640;2023-03-13T00:37:22;8.20;99.90
51950;DHT22;37974;53.218;6.640;2023-03-13T00:39:47;8.20;99.90
51950;DHT22;37974;53.218;6.640;2023-03-13T00:42:13;8.20;99.90
51950;DHT22;37974;53.218;6.640;2023-03-13T00:44:39;8.20;99.90
51950;DHT22;37974;53.218;6.640;2023-03-13T00:47:05;8.20;99.90
51950;DHT22;37974;53.218;6.640;2023-03-13T00:49:32;8.20;99.90
51950;DHT22;37974;53.218;6.640;2023-03-13T00:51:58;8.20;99.90
51950;DHT22;37974;53.218;6.640;2023-03-13T00:54:24;8.20;99.90
51950;DHT22;37974;53.218;6.640;2023-03-13T00:56:49;8.30;99.90
51950;DHT22;37974;53.218;6.640;2023-03-13T00:59:15;8.20;99.90
51950;DHT22;37974;53.218;6.640;2023-03-13T01:01:41;8.20;99.90
51950;DHT22;37974;53.218;6.640;2023-03-13T01:04:10;8.20;99.90
51950;DHT22;37974;53.218;6.640;2023-03-13T01:06:37;8.20;99.90
51950;DHT22;37974;53.218;6.640;2023-03-13T01:09:05;8.20;99.90
51950;DHT22;37974;53.218;6.640;2023-03-13T01:11:36;8.20;99.90
51950;DHT22;37974;53.218;6.640;2023-03-13T01:14:06;8.20;99.90
51950;DHT22;37974;53.218;6.640;2023-03-13T01:16:33;8.20;99.90
51950;DHT22;37974;53.218;6.640;2023-03-13T01:19:02;8.20;99.90
51950;DHT22;37974;53.218;6.640;2023-03-13T01:21:28;8.20;99.90
51950;DHT22;37974;53.218;6.640;2023-03-13T01:23:54;8.20;99.90
51950;DHT22;37974;53.218;6.640;2023-03-13T01:26:20;8.20;99.90
51950;DHT22;37974;53.218;6.640;2023-03-13T01:28:46;8.20;99.90
51950;DHT22;37974;53.218;6.640;2023-03-13T01:31:13;8.20;99.90
51950;DHT22;37974;53.218;6.640;2023-03-13T01:33:40;8.20;99.90
51950;DHT22;37974;53.218;6.640;2023-03-13T01:36:06;8.20;99.90
51950;DHT22;37974;53.218;6.640;2023-03-13T01:38:33;8.20;99.90
51950;DHT22;37974;53.218;6.640;2023-03-13T01:40:59;8.20;99.90
51950;DHT22;37974;53.218;6.640;2023-03-13T01:43:27;8.20;99.90
51950;DHT22;37974;53.218;6.640;2023-03-13T01:48:21;8.20;99.90
51950;DHT22;37974;53.218;6.640;2023-03-13T01:50:52;8.20;99.90
51950;DHT22;37974;53.218;6.640;2023-03-13T01:53:25;8.20;99.90
51950;DHT22;37974;53.218;6.640;2023-03-13T01:55:53;7.80;99.90
51950;DHT22;37974;53.218;6.640;2023-03-13T01:58:20;8.20;99.90
51950;DHT22;37974;53.218;6.640;2023-03-13T02:00:46;8.20;99.90
51950;DHT22;37974;53.218;6.640;2023-03-13T02:03:16;8.20;99.90
51950;DHT22;37974;53.218;6.640;2023-03-13T02:05:52;8.20;99.90
51950;DHT22;37974;53.218;6.640;2023-03-13T02:08:23;7.70;99.90
51950;DHT22;37974;53.218;6.640;2023-03-13T02:13:39;8.30;99.90
51950;DHT22;37974;53.218;6.640;2023-03-13T02:16:06;8.20;99.90
51950;DHT22;37974;53.218;6.640;2023-03-13T02:18:32;8.30;99.90
51950;DHT22;37974;53.218;6.640;2023-03-13T02:21:07;8.30;99.90
51950;DHT22;37974;53.218;6.640;2023-03-13T02:23:41;8.40;99.90
51950;DHT22;37974;53.218;6.640;2023-03-13T02:26:07;8.30;99.90
51950;DHT22;37974;53.218;6.640;2023-03-13T02:28:34;8.30;99.90
51950;DHT22;37974;53.218;6.640;2023-03-13T02:31:04;8.30;99.90
51950;DHT22;37974;53.218;6.640;2023-03-13T02:33:34;8.30;99.90
51950;DHT22;37974;53.218;6.640;2023-03-13T02:36:01;8.30;99.90
51950;DHT22;37974;53.218;6.640;2023-03-13T02:38:35;8.30;99.90
51950;DHT22;37974;53.218;6.640;2023-03-13T02:41:03;8.30;99.90
51950;DHT22;37974;53.218;6.640;2023-03-13T02:43:32;8.30;99.90
51950;DHT22;37974;53.218;6.640;2023-03-13T02:46:01;8.20;99.90
51950;DHT22;37974;53.218;6.640;2023-03-13T02:48:34;8.30;99.90
51950;DHT22;37974;53.218;6.640;2023-03-13T02:51:04;8.30;99.90
51950;DHT22;37974;53.218;6.640;2023-03-13T02:53:34;8.30;99.90
51950;DHT22;37974;53.218;6.640;2023-03-13T02:56:00;8.30;99.90
51950;DHT22;37974;53.218;6.640;2023-03-13T02:58:25;8.30;99.90
51950;DHT22;37974;53.218;6.640;2023-03-13T03:00:52;8.30;99.90
51950;DHT22;37974;53.218;6.640;2023-03-13T03:03:17;8.30;99.90
51950;DHT22;37974;53.218;6.640;2023-03-13T03:05:43;8.30;99.90
51950;DHT22;37974;53.218;6.640;2023-03-13T03:08:12;8.30;99.90
51950;DHT22;37974;53.218;6.640;2023-03-13T03:10:38;8.40;99.90
51950;DHT22;37974;53.218;6.640;2023-03-13T03:13:03;8.40;99.90
51950;DHT22;37974;53.218;6.640;2023-03-13T03:15:29;8.40;99.90
51950;DHT22;37974;53.218;6.640;2023-03-13T03:17:55;8.50;99.90
51950;DHT22;37974;53.218;6.640;2023-03-13T03:20:29;8.50;99.90
51950;DHT22;37974;53.218;6.640;2023-03-13T03:22:58;8.50;99.90
51950;DHT22;37974;53.218;6.640;2023-03-13T03:25:27;8.50;99.90
51950;DHT22;37974;53.218;6.640;2023-03-13T03:27:52;8.50;99.90
51950;DHT22;37974;53.218;6.640;2023-03-13T03:30:18;8.50;99.90
51950;DHT22;37974;53.218;6.640;2023-03-13T03:32:44;8.60;99.90
51950;DHT22;37974;53.218;6.640;2023-03-13T03:35:10;8.50;99.90
51950;DHT22;37974;53.218;6.640;2023-03-13T03:37:35;8.60;99.90
51950;DHT22;37974;53.218;6.640;2023-03-13T03:40:01;8.60;99.90
51950;DHT22;37974;53.218;6.640;2023-03-13T03:42:30;8.70;99.90
51950;DHT22;37974;53.218;6.640;2023-03-13T03:44:55;8.70;99.90
51950;DHT22;37974;53.218;6.640;2023-03-13T03:47:21;8.80;99.90
51950;DHT22;37974;53.218;6.640;2023-03-13T03:49:47;8.80;99.90
51950;DHT22;37974;53.218;6.640;2023-03-13T03:52:12;8.80;99.90
51950;DHT22;37974;53.218;6.640;2023-03-13T03:54:38;8.90;99.90
51950;DHT22;37974;53.218;6.640;2023-03-13T03:57:07;8.90;99.90
51950;DHT22;37974;53.218;6.640;2023-03-13T03:59:33;8.80;99.90
51950;DHT22;37974;53.218;6.640;2023-03-13T04:01:58;9.00;99.90
51950;DHT22;37974;53.218;6.640;2023-03-13T04:04:24;9.00;99.90
51950;DHT22;37974;53.218;6.640;2023-03-13T04:06:50;8.90;99.90
51950;DHT22;37974;53.218;6.640;2023-03-13T04:09:16;9.00;99.90
51950;DHT22;37974;53.218;6.640;2023-03-13T04:11:42;8.90;99.90
51950;DHT22;37974;53.218;6.640;2023-03-13T04:14:07;9.00;99.90
51950;DHT22;37974;53.218;6.640;2023-03-13T04:16:33;9.00;99.90
51950;DHT22;37974;53.218;6.640;2023-03-13T04:18:59;9.00;99.90
51950;DHT22;37974;53.218;6.640;2023-03-13T04:21:25;9.10;99.90
51950;DHT22;37974;53.218;6.640;2023-03-13T04:23:50;9.10;99.90
51950;DHT22;37974;53.218;6.640;2023-03-13T04:26:16;9.10;99.90
51950;DHT22;37974;53.218;6.640;2023-03-13T04:28:42;9.20;99.90
51950;DHT22;37974;53.218;6.640;2023-03-13T04:31:08;9.20;99.90
51950;DHT22;37974;53.218;6.640;2023-03-13T04:33:33;9.30;99.90
51950;DHT22;37974;53.218;6.640;2023-03-13T04:36:01;9.30;99.90
51950;DHT22;37974;53.218;6.640;2023-03-13T04:38:27;9.40;99.90
51950;DHT22;37974;53.218;6.640;2023-03-13T04:40:53;9.40;99.90
51950;DHT22;37974;53.218;6.640;2023-03-13T04:43:18;9.60;99.90
51950;DHT22;37974;53.218;6.640;2023-03-13T04:45:44;9.50;99.90
51950;DHT22;37974;53.218;6.640;2023-03-13T04:48:11;9.70;99.90
51950;DHT22;37974;53.218;6.640;2023-03-13T04:50:37;9.70;99.90
51950;DHT22;37974;53.218;6.640;2023-03-13T04:53:03;9.70;99.90
51950;DHT22;37974;53.218;6.640;2023-03-13T04:55:31;9.70;99.90
51950;DHT22;37974;53.218;6.640;2023-03-13T04:57:57;9.80;99.90
51950;DHT22;37974;53.218;6.640;2023-03-13T05:00:23;9.90;99.90
51950;DHT22;37974;53.218;6.640;2023-03-13T05:02:48;9.90;99.90
51950;DHT22;37974;53.218;6.640;2023-03-13T05:05:14;10.00;99.90
51950;DHT22;37974;53.218;6.640;2023-03-13T05:07:40;10.00;99.90
51950;DHT22;37974;53.218;6.640;2023-03-13T05:10:05;9.90;99.90
51950;DHT22;37974;53.218;6.640;2023-03-13T05:12:31;10.10;99.90
51950;DHT22;37974;53.218;6.640;2023-03-13T05:14:57;10.00;99.90
51950;DHT22;37974;53.218;6.640;2023-03-13T05:17:23;10.10;99.90
51950;DHT22;37974;53.218;6.640;2023-03-13T05:19:49;10.20;99.90
51950;DHT22;37974;53.218;6.640;2023-03-13T05:22:14;10.20;99.90
51950;DHT22;37974;53.218;6.640;2023-03-13T05:24:40;10.20;99.90
51950;DHT22;37974;53.218;6.640;2023-03-13T05:27:06;10.30;99.90
51950;DHT22;37974;53.218;6.640;2023-03-13T05:29:41;10.40;99.90
51950;DHT22;37974;53.218;6.640;2023-03-13T05:32:15;10.50;99.90
51950;DHT22;37974;53.218;6.640;2023-03-13T05:34:43;10.50;99.90
51950;DHT22;37974;53.218;6.640;2023-03-13T05:37:09;10.60;99.90
51950;DHT22;37974;53.218;6.640;2023-03-13T05:39:35;10.60;99.90
51950;DHT22;37974;53.218;6.640;2023-03-13T05:42:00;10.70;99.90
51950;DHT22;37974;53.218;6.640;2023-03-13T05:44:26;10.80;99.90
51950;DHT22;37974;53.218;6.640;2023-03-13T05:46:52;10.90;99.90
51950;DHT22;37974;53.218;6.640;2023-03-13T05:49:18;10.90;99.90
51950;DHT22;37974;53.218;6.640;2023-03-13T05:51:43;10.90;99.90
51950;DHT22;37974;53.218;6.640;2023-03-13T05:54:09;10.90;99.90
51950;DHT22;37974;53.218;6.640;2023-03-13T05:56:35;10.90;99.90
51950;DHT22;37974;53.218;6.640;2023-03-13T05:59:00;11.00;99.90
51950;DHT22;37974;53.218;6.640;2023-03-13T06:01:26;11.00;99.90
51950;DHT22;37974;53.218;6.640;2023-03-13T06:03:54;11.00;99.90
51950;DHT22;37974;53.218;6.640;2023-03-13T06:06:19;11.00;99.90
51950;DHT22;37974;53.218;6.640;2023-03-13T06:08:45;11.00;99.90
51950;DHT22;37974;53.218;6.640;2023-03-13T06:11:11;11.00;99.90
51950;DHT22;37974;53.218;6.640;2023-03-13T06:13:37;11.00;99.90
51950;DHT22;37974;53.218;6.640;2023-03-13T06:16:03;11.00;99.90
51950;DHT22;37974;53.218;6.640;2023-03-13T06:18:28;11.10;99.90
51950;DHT22;37974;53.218;6.640;2023-03-13T06:20:57;11.00;99.90
51950;DHT22;37974;53.218;6.640;2023-03-13T06:23:23;10.90;99.90
51950;DHT22;37974;53.218;6.640;2023-03-13T06:25:50;11.00;99.90
51950;DHT22;37974;53.218;6.640;2023-03-13T06:28:18;11.00;99.90
51950;DHT22;37974;53.218;6.640;2023-03-13T06:30:44;10.90;99.90
51950;DHT22;37974;53.218;6.640;2023-03-13T06:33:10;10.90;99.90
51950;DHT22;37974;53.218;6.640;2023-03-13T06:35:39;10.90;99.90
51950;DHT22;37974;53.218;6.640;2023-03-13T06:38:05;10.90;99.90
51950;DHT22;37974;53.218;6.640;2023-03-13T06:40:31;11.00;99.90
51950;DHT22;37974;53.218;6.640;2023-03-13T06:42:58;10.90;99.90
51950;DHT22;37974;53.218;6.640;2023-03-13T06:45:24;11.00;99.90
51950;DHT22;37974;53.218;6.640;2023-03-13T06:47:49;11.00;99.90
51950;DHT22;37974;53.218;6.640;2023-03-13T06:50:16;11.00;99.90
51950;DHT22;37974;53.218;6.640;2023-03-13T06:52:42;11.10;99.90
51950;DHT22;37974;53.218;6.640;2023-03-13T06:55:09;11.10;99.90
51950;DHT22;37974;53.218;6.640;2023-03-13T06:57:34;11.10;99.90
51950;DHT22;37974;53.218;6.640;2023-03-13T07:00:00;11.20;99.90
51950;DHT22;37974;53.218;6.640;2023-03-13T07:02:26;11.10;99.90
51950;DHT22;37974;53.218;6.640;2023-03-13T07:04:52;11.10;99.90
51950;DHT22;37974;53.218;6.640;2023-03-13T07:07:17;11.20;99.90
51950;DHT22;37974;53.218;6.640;2023-03-13T07:09:43;11.20;99.90
51950;DHT22;37974;53.218;6.640;2023-03-13T07:12:09;11.30;99.90
51950;DHT22;37974;53.218;6.640;2023-03-13T07:14:34;11.30;99.90
51950;DHT22;37974;53.218;6.640;2023-03-13T07:17:00;11.30;99.90
51950;DHT22;37974;53.218;6.640;2023-03-13T07:19:26;11.30;99.90
51950;DHT22;37974;53.218;6.640;2023-03-13T07:21:52;11.30;99.90
51950;DHT22;37974;53.218;6.640;2023-03-13T07:24:18;11.40;99.90
51950;DHT22;37974;53.218;6.640;2023-03-13T07:26:44;11.40;99.90
51950;DHT22;37974;53.218;6.640;2023-03-13T07:29:09;11.40;99.90
51950;DHT22;37974;53.218;6.640;2023-03-13T07:31:35;11.40;99.90
51950;DHT22;37974;53.218;6.640;2023-03-13T07:34:01;11.40;99.90
51950;DHT22;37974;53.218;6.640;2023-03-13T07:36:27;11.40;99.90
51950;DHT22;37974;53.218;6.640;2023-03-13T07:38:52;11.40;99.90
51950;DHT22;37974;53.218;6.640;2023-03-13T07:41:19;11.40;99.90
51950;DHT22;37974;53.218;6.640;2023-03-13T07:43:45;11.40;99.90
51950;DHT22;37974;53.218;6.640;2023-03-13T07:46:13;11.40;99.90
51950;DHT22;37974;53.218;6.640;2023-03-13T07:48:41;11.40;99.90
51950;DHT22;37974;53.218;6.640;2023-03-13T07:51:12;11.40;99.90
51950;DHT22;37974;53.218;6.640;2023-03-13T07:53:38;11.40;99.90
51950;DHT22;37974;53.218;6.640;2023-03-13T07:56:06;11.40;99.90
51950;DHT22;37974;53.218;6.640;2023-03-13T07:58:34;11.40;99.90
51950;DHT22;37974;53.218;6.640;2023-03-13T08:01:07;11.30;99.90
51950;DHT22;37974;53.218;6.640;2023-03-13T08:03:32;11.40;99.90
51950;DHT22;37974;53.218;6.640;2023-03-13T08:06:00;11.30;99.90
51950;DHT22;37974;53.218;6.640;2023-03-13T08:08:26;11.30;99.90
51950;DHT22;37974;53.218;6.640;2023-03-13T08:10:52;11.30;99.90
51950;DHT22;37974;53.218;6.640;2023-03-13T08:13:18;11.30;99.90
51950;DHT22;37974;53.218;6.640;2023-03-13T08:15:44;11.30;99.90
51950;DHT22;37974;53.218;6.640;2023-03-13T08:18:09;11.30;99.90
51950;DHT22;37974;53.218;6.640;2023-03-13T08:20:35;11.30;99.90
51950;DHT22;37974;53.218;6.640;2023-03-13T08:23:01;11.30;99.90
51950;DHT22;37974;53.218;6.640;2023-03-13T08:25:26;11.40;99.90
51950;DHT22;37974;53.218;6.640;2023-03-13T08:27:52;11.40;99.90
51950;DHT22;37974;53.218;6.640;2023-03-13T08:30:19;11.40;99.90
51950;DHT22;37974;53.218;6.640;2023-03-13T08:32:45;11.60;99.90
51950;DHT22;37974;53.218;6.640;2023-03-13T08:35:10;11.60;99.90
51950;DHT22;37974;53.218;6.640;2023-03-13T08:37:36;11.70;99.90
51950;DHT22;37974;53.218;6.640;2023-03-13T08:40:02;11.80;99.90
51950;DHT22;37974;53.218;6.640;2023-03-13T08:42:28;11.90;99.90
51950;DHT22;37974;53.218;6.640;2023-03-13T08:44:54;12.00;99.90
51950;DHT22;37974;53.218;6.640;2023-03-13T08:47:19;12.10;99.90
51950;DHT22;37974;53.218;6.640;2023-03-13T08:49:45;12.20;99.90
51950;DHT22;37974;53.218;6.640;2023-03-13T08:52:11;12.30;99.90
51950;DHT22;37974;53.218;6.640;2023-03-13T08:54:36;12.40;99.90
51950;DHT22;37974;53.218;6.640;2023-03-13T08:57:02;12.40;99.90
51950;DHT22;37974;53.218;6.640;2023-03-13T08:59:28;12.50;99.90
51950;DHT22;37974;53.218;6.640;2023-03-13T09:01:54;12.50;99.90
51950;DHT22;37974;53.218;6.640;2023-03-13T09:04:29;12.60;99.90
51950;DHT22;37974;53.218;6.640;2023-03-13T09:06:54;12.60;99.90
51950;DHT22;37974;53.218;6.640;2023-03-13T09:09:20;12.70;99.90
51950;DHT22;37974;53.218;6.640;2023-03-13T09:11:46;12.80;99.90
51950;DHT22;37974;53.218;6.640;2023-03-13T09:14:12;12.80;99.90
51950;DHT22;37974;53.218;6.640;2023-03-13T09:16:37;12.90;99.90
51950;DHT22;37974;53.218;6.640;2023-03-13T09:19:03;12.90;99.90
51950;DHT22;37974;53.218;6.640;2023-03-13T09:21:31;12.80;99.90
51950;DHT22;37974;53.218;6.640;2023-03-13T09:23:57;12.60;99.90
51950;DHT22;37974;53.218;6.640;2023-03-13T09:26:24;12.70;99.90
51950;DHT22;37974;53.218;6.640;2023-03-13T09:28:57;12.70;99.90
51950;DHT22;37974;53.218;6.640;2023-03-13T09:31:25;12.70;99.90
51950;DHT22;37974;53.218;6.640;2023-03-13T09:33:51;12.70;99.90
51950;DHT22;37974;53.218;6.640;2023-03-13T09:36:18;12.60;99.90
51950;DHT22;37974;53.218;6.640;2023-03-13T09:38:44;12.60;99.90
51950;DHT22;37974;53.218;6.640;2023-03-13T09:43:49;12.50;99.90
51950;DHT22;37974;53.218;6.640;2023-03-13T09:46:22;12.60;99.90
51950;DHT22;37974;53.218;6.640;2023-03-13T09:48:55;12.50;99.90
51950;DHT22;37974;53.218;6.640;2023-03-13T09:51:30;12.50;99.90
51950;DHT22;37974;53.218;6.640;2023-03-13T09:56:36;12.60;99.90
51950;DHT22;37974;53.218;6.640;2023-03-13T09:59:14;12.60;99.90
51950;DHT22;37974;53.218;6.640;2023-03-13T10:01:42;12.60;99.90
51950;DHT22;37974;53.218;6.640;2023-03-13T10:06:59;12.70;99.90
51950;DHT22;37974;53.218;6.640;2023-03-13T10:09:30;12.90;99.90
51950;DHT22;37974;53.218;6.640;2023-03-13T10:14:41;13.10;99.90
51950;DHT22;37974;53.218;6.640;2023-03-13T10:17:27;13.10;99.90
51950;DHT22;37974;53.218;6.640;2023-03-13T10:19:57;13.20;99.90
51950;DHT22;37974;53.218;6.640;2023-03-13T10:22:26;13.20;99.90
51950;DHT22;37974;53.218;6.640;2023-03-13T10:24:59;13.30;99.90
51950;DHT22;37974;53.218;6.640;2023-03-13T10:27:25;13.30;99.90
51950;DHT22;37974;53.218;6.640;2023-03-13T10:29:51;13.40;99.90
51950;DHT22;37974;53.218;6.640;2023-03-13T10:32:17;13.50;99.90
51950;DHT22;37974;53.218;6.640;2023-03-13T10:34:47;13.60;99.90
51950;DHT22;37974;53.218;6.640;2023-03-13T10:37:18;13.70;99.90
51950;DHT22;37974;53.218;6.640;2023-03-13T10:39:44;13.80;99.90
51950;DHT22;37974;53.218;6.640;2023-03-13T10:42:27;13.80;99.90
51950;DHT22;37974;53.218;6.640;2023-03-13T10:45:00;13.80;99.90
51950;DHT22;37974;53.218;6.640;2023-03-13T10:47:32;13.80;99.90
51950;DHT22;37974;53.218;6.640;2023-03-13T10:49:59;13.80;99.90
51950;DHT22;37974;53.218;6.640;2023-03-13T10:52:32;13.90;99.90
51950;DHT22;37974;53.218;6.640;2023-03-13T10:55:04;13.90;99.90
51950;DHT22;37974;53.218;6.640;2023-03-13T10:57:32;13.90;99.90
51950;DHT22;37974;53.218;6.640;2023-03-13T10:59:59;13.80;99.90
51950;DHT22;37974;53.218;6.640;2023-03-13T11:02:35;13.80;99.90
51950;DHT22;37974;53.218;6.640;2023-03-13T11:07:48;13.70;99.90
51950;DHT22;37974;53.218;6.640;2023-03-13T11:10:17;13.70;99.90
51950;DHT22;37974;53.218;6.640;2023-03-13T11:12:46;13.70;99.90
51950;DHT22;37974;53.218;6.640;2023-03-13T11:15:16;13.60;99.90
51950;DHT22;37974;53.218;6.640;2023-03-13T11:17:48;13.70;99.90
51950;DHT22;37974;53.218;6.640;2023-03-13T11:20:25;13.60;99.90
51950;DHT22;37974;53.218;6.640;2023-03-13T11:28:27;13.80;99.90
51950;DHT22;37974;53.218;6.640;2023-03-13T11:31:08;13.80;99.90
51950;DHT22;37974;53.218;6.640;2023-03-13T11:36:17;13.80;99.90
51950;DHT22;37974;53.218;6.640;2023-03-13T11:38:48;13.80;99.90
51950;DHT22;37974;53.218;6.640;2023-03-13T11:41:28;13.80;99.90
51950;DHT22;37974;53.218;6.640;2023-03-13T11:46:55;13.70;99.90
51950;DHT22;37974;53.218;6.640;2023-03-13T11:49:34;13.70;99.90
51950;DHT22;37974;53.218;6.640;2023-03-13T11:52:23;13.80;99.90
51950;DHT22;37974;53.218;6.640;2023-03-13T11:55:12;13.90;99.90
51950;DHT22;37974;53.218;6.640;2023-03-13T11:57:46;14.10;99.90
51950;DHT22;37974;53.218;6.640;2023-03-13T12:00:24;14.30;99.90
51950;DHT22;37974;53.218;6.640;2023-03-13T12:02:58;14.30;99.90
51950;DHT22;37974;53.218;6.640;2023-03-13T12:05:37;14.30;99.90
51950;DHT22;37974;53.218;6.640;2023-03-13T12:08:10;14.20;99.90
51950;DHT22;37974;53.218;6.640;2023-03-13T12:10:43;14.20;99.90
51950;DHT22;37974;53.218;6.640;2023-03-13T12:13:20;14.20;99.90
51950;DHT22;37974;53.218;6.640;2023-03-13T12:15:49;14.20;99.90
51950;DHT22;37974;53.218;6.640;2023-03-13T12:21:00;14.20;99.90
51950;DHT22;37974;53.218;6.640;2023-03-13T12:23:44;14.20;99.90
51950;DHT22;37974;53.218;6.640;2023-03-13T12:26:15;14.20;99.90
51950;DHT22;37974;53.218;6.640;2023-03-13T12:28:44;14.10;99.90
51950;DHT22;37974;53.218;6.640;2023-03-13T12:36:39;14.10;99.90
51950;DHT22;37974;53.218;6.640;2023-03-13T12:41:50;14.20;99.90
51950;DHT22;37974;53.218;6.640;2023-03-13T12:44:19;14.20;99.90
51950;DHT22;37974;53.218;6.640;2023-03-13T12:47:06;14.30;99.90
51950;DHT22;37974;53.218;6.640;2023-03-13T12:50:12;14.20;99.90
51950;DHT22;37974;53.218;6.640;2023-03-13T12:52:54;14.30;99.90
51950;DHT22;37974;53.218;6.640;2023-03-13T12:58:12;14.50;99.90
51950;DHT22;37974;53.218;6.640;2023-03-13T13:00:42;14.50;99.90
51950;DHT22;37974;53.218;6.640;2023-03-13T13:03:16;14.50;99.90
51950;DHT22;37974;53.218;6.640;2023-03-13T13:06:01;14.40;99.90
51950;DHT22;37974;53.218;6.640;2023-03-13T13:08:29;14.50;99.90
51950;DHT22;37974;53.218;6.640;2023-03-13T13:14:01;14.50;99.90
51950;DHT22;37974;53.218;6.640;2023-03-13T13:16:27;14.40;99.90
51950;DHT22;37974;53.218;6.640;2023-03-13T13:18:54;14.50;99.90
51950;DHT22;37974;53.218;6.640;2023-03-13T13:21:22;14.40;99.90
51950;DHT22;37974;53.218;6.640;2023-03-13T13:23:49;14.40;99.90
51950;DHT22;37974;53.218;6.640;2023-03-13T13:28:58;14.30;99.90
51950;DHT22;37974;53.218;6.640;2023-03-13T13:31:45;14.20;99.90
51950;DHT22;37974;53.218;6.640;2023-03-13T13:36:58;14.10;99.90
51950;DHT22;37974;53.218;6.640;2023-03-13T13:39:40;14.10;99.90
51950;DHT22;37974;53.218;6.640;2023-03-13T13:45:02;14.00;99.90
51950;DHT22;37974;53.218;6.640;2023-03-13T13:47:30;14.00;99.90
51950;DHT22;37974;53.218;6.640;2023-03-13T13:49:58;14.00;99.90
51950;DHT22;37974;53.218;6.640;2023-03-13T13:55:02;14.10;99.90
51950;DHT22;37974;53.218;6.640;2023-03-13T13:57:33;14.10;99.90
51950;DHT22;37974;53.218;6.640;2023-03-13T14:02:50;14.20;99.90
51950;DHT22;37974;53.218;6.640;2023-03-13T14:05:21;14.20;99.90
51950;DHT22;37974;53.218;6.640;2023-03-13T14:08:16;14.20;99.90
51950;DHT22;37974;53.218;6.640;2023-03-13T14:10:49;14.10;99.90
51950;DHT22;37974;53.218;6.640;2023-03-13T14:13:18;14.10;99.90
51950;DHT22;37974;53.218;6.640;2023-03-13T14:15:47;14.10;99.90
51950;DHT22;37974;53.218;6.640;2023-03-13T14:18:26;14.10;99.90
51950;DHT22;37974;53.218;6.640;2023-03-13T14:21:04;14.10;99.90
51950;DHT22;37974;53.218;6.640;2023-03-13T14:23:39;14.10;99.90
51950;DHT22;37974;53.218;6.640;2023-03-13T14:28:39;14.20;99.90
51950;DHT22;37974;53.218;6.640;2023-03-13T14:31:06;14.20;99.90
51950;DHT22;37974;53.218;6.640;2023-03-13T14:33:33;14.20;99.90
51950;DHT22;37974;53.218;6.640;2023-03-13T14:35:59;14.20;99.90
51950;DHT22;37974;53.218;6.640;2023-03-13T14:38:27;14.30;99.90
51950;DHT22;37974;53.218;6.640;2023-03-13T14:40:54;14.30;99.90
51950;DHT22;37974;53.218;6.640;2023-03-13T14:43:32;14.30;99.90
51950;DHT22;37974;53.218;6.640;2023-03-13T14:46:00;14.20;99.90
51950;DHT22;37974;53.218;6.640;2023-03-13T14:48:31;14.20;99.90
51950;DHT22;37974;53.218;6.640;2023-03-13T14:51:02;14.20;99.90
51950;DHT22;37974;53.218;6.640;2023-03-13T14:53:28;14.20;99.90
51950;DHT22;37974;53.218;6.640;2023-03-13T14:58:40;14.10;99.90
51950;DHT22;37974;53.218;6.640;2023-03-13T15:01:22;14.10;99.90
51950;DHT22;37974;53.218;6.640;2023-03-13T15:03:51;14.00;99.90
51950;DHT22;37974;53.218;6.640;2023-03-13T15:06:19;14.00;99.90
51950;DHT22;37974;53.218;6.640;2023-03-13T15:08:48;14.00;99.90
51950;DHT22;37974;53.218;6.640;2023-03-13T15:13:46;14.00;99.90
51950;DHT22;37974;53.218;6.640;2023-03-13T15:16:15;13.90;99.90
51950;DHT22;37974;53.218;6.640;2023-03-13T15:18:41;13.90;99.90
51950;DHT22;37974;53.218;6.640;2023-03-13T15:23:40;13.80;99.90
51950;DHT22;37974;53.218;6.640;2023-03-13T15:26:07;13.80;99.90
51950;DHT22;37974;53.218;6.640;2023-03-13T15:28:33;13.80;99.90
51950;DHT22;37974;53.218;6.640;2023-03-13T15:30:59;13.80;99.90
51950;DHT22;37974;53.218;6.640;2023-03-13T15:33:27;13.70;99.90
51950;DHT22;37974;53.218;6.640;2023-03-13T15:35:53;13.70;99.90
51950;DHT22;37974;53.218;6.640;2023-03-13T15:38:21;13.70;99.90
51950;DHT22;37974;53.218;6.640;2023-03-13T15:40:47;13.70;99.90
51950;DHT22;37974;53.218;6.640;2023-03-13T15:43:14;13.60;99.90
51950;DHT22;37974;53.218;6.640;2023-03-13T15:45:42;13.60;99.90
51950;DHT22;37974;53.218;6.640;2023-03-13T15:48:15;13.50;99.90
51950;DHT22;37974;53.218;6.640;2023-03-13T15:50:41;13.50;99.90
51950;DHT22;37974;53.218;6.640;2023-03-13T15:53:26;13.50;99.90
51950;DHT22;37974;53.218;6.640;2023-03-13T15:55:53;13.40;99.90
51950;DHT22;37974;53.218;6.640;2023-03-13T15:58:20;13.40;99.90
51950;DHT22;37974;53.218;6.640;2023-03-13T16:00:47;13.40;99.90
51950;DHT22;37974;53.218;6.640;2023-03-13T16:03:17;13.30;99.90
51950;DHT22;37974;53.218;6.640;2023-03-13T16:05:44;13.30;99.90
51950;DHT22;37974;53.218;6.640;2023-03-13T16:08:14;13.20;99.90
51950;DHT22;37974;53.218;6.640;2023-03-13T16:10:40;13.20;99.90
51950;DHT22;37974;53.218;6.640;2023-03-13T16:13:07;13.10;99.90
51950;DHT22;37974;53.218;6.640;2023-03-13T16:15:34;13.10;99.90
51950;DHT22;37974;53.218;6.640;2023-03-13T16:18:00;13.00;99.90
51950;DHT22;37974;53.218;6.640;2023-03-13T16:20:26;13.00;99.90
51950;DHT22;37974;53.218;6.640;2023-03-13T16:22:54;12.90;99.90
51950;DHT22;37974;53.218;6.640;2023-03-13T16:25:21;12.90;99.90
51950;DHT22;37974;53.218;6.640;2023-03-13T16:27:47;12.80;99.90
51950;DHT22;37974;53.218;6.640;2023-03-13T16:30:27;12.80;99.90
51950;DHT22;37974;53.218;6.640;2023-03-13T16:32:53;12.70;99.90
51950;DHT22;37974;53.218;6.640;2023-03-13T16:35:20;12.70;99.90
51950;DHT22;37974;53.218;6.640;2023-03-13T16:37:45;12.60;99.90
51950;DHT22;37974;53.218;6.640;2023-03-13T16:40:17;12.60;99.90
51950;DHT22;37974;53.218;6.640;2023-03-13T16:42:43;12.60;99.90
51950;DHT22;37974;53.218;6.640;2023-03-13T16:45:09;12.50;99.90
51950;DHT22;37974;53.218;6.640;2023-03-13T16:47:35;12.50;99.90
51950;DHT22;37974;53.218;6.640;2023-03-13T16:50:02;12.40;99.90
51950;DHT22;37974;53.218;6.640;2023-03-13T16:52:28;12.30;99.90